Time,TemperatureF,DewpointF,PressureIn,WindDirection,WindDirectionDegrees,WindSpeedMPH,WindSpeedGustMPH,Humidity,HourlyPrecipIn,Conditions,Clouds,dailyrainin,SoftwareType,DateUTC
2013-04-04 00:00:00,21.2,16.0,30.49,NW,307,0.0,0.0,80,0.00,,---,0.00,VWS V13.01,2013-04-04 04:00:00,
2013-04-04 00:02:00,21.1,15.9,30.49,NW,307,0.0,0.0,80,0.00,,---,0.00,VWS V13.01,2013-04-04 04:02:00,
2013-04-04 00:07:00,20.8,15.6,30.49,NW,307,0.0,0.0,80,0.00,,---,0.00,VWS V13.01,2013-04-04 04:07:00,
2013-04-04 00:12:00,20.9,16.0,30.49,NW,307,0.0,0.0,81,0.00,,---,0.00,VWS V13.01,2013-04-04 04:12:00,
2013-04-04 00:17:00,20.9,16.0,30.49,NW,307,0.0,1.0,81,0.00,,---,0.00,VWS V13.01,2013-04-04 04:17:00,
2013-04-04 00:22:00,21.0,16.1,30.49,NW,307,0.0,1.0,81,0.00,,---,0.00,VWS V13.01,2013-04-04 04:22:00,
2013-04-04 00:27:00,21.3,16.4,30.48,NW,307,0.0,1.0,81,0.00,,---,0.00,VWS V13.01,2013-04-04 04:27:00,
2013-04-04 00:32:00,20.7,15.8,30.48,NW,307,0.0,0.0,81,0.00,,---,0.00,VWS V13.01,2013-04-04 04:32:00,
2013-04-04 00:38:00,20.7,15.8,30.48,NW,307,0.0,0.0,81,0.00,,---,0.00,VWS V13.01,2013-04-04 04:38:00,
2013-04-04 00:43:00,20.6,16.0,30.48,NW,307,0.0,0.0,82,0.00,,---,0.00,VWS V13.01,2013-04-04 04:43:00,
2013-04-04 00:48:00,20.4,15.8,30.48,NW,307,0.0,0.0,82,0.00,,---,0.00,VWS V13.01,2013-04-04 04:48:00,
2013-04-04 00:54:00,20.2,15.6,30.48,NW,307,0.0,0.0,82,0.00,,---,0.00,VWS V13.01,2013-04-04 04:54:00,
2013-04-04 01:00:00,19.9,15.3,30.49,NW,307,0.0,0.0,82,0.00,,---,0.00,VWS V13.01,2013-04-04 05:00:00,
2013-04-04 01:05:00,19.7,15.4,30.49,NW,307,0.0,0.0,83,0.00,,---,0.00,VWS V13.01,2013-04-04 05:05:00,
2013-04-04 01:10:00,19.5,15.2,30.49,NW,307,0.0,0.0,83,0.00,,---,0.00,VWS V13.01,2013-04-04 05:10:00,
2013-04-04 01:15:00,19.5,15.5,30.50,NW,307,0.0,0.0,84,0.00,,---,0.00,VWS V13.01,2013-04-04 05:15:00,
2013-04-04 01:20:00,19.2,15.2,30.49,NW,307,0.0,0.0,84,0.00,,---,0.00,VWS V13.01,2013-04-04 05:20:00,
2013-04-04 01:25:00,19.1,15.3,30.50,NW,307,0.0,1.0,85,0.00,,---,0.00,VWS V13.01,2013-04-04 05:25:00,
2013-04-04 01:30:00,19.1,15.3,30.50,NW,307,0.0,0.0,85,0.00,,---,0.00,VWS V13.01,2013-04-04 05:30:00,
2013-04-04 01:37:00,18.9,15.1,30.51,NW,307,0.0,5.0,85,0.00,,---,0.00,VWS V13.01,2013-04-04 05:37:00,
2013-04-04 01:42:00,18.8,15.1,30.51,NW,307,0.0,5.0,85,0.00,,---,0.00,VWS V13.01,2013-04-04 05:42:00,
2013-04-04 01:47:00,18.8,15.1,30.52,NW,307,0.0,5.0,85,0.00,,---,0.00,VWS V13.01,2013-04-04 05:47:00,
2013-04-04 01:52:00,18.7,14.9,30.52,NW,307,0.0,5.0,85,0.00,,---,0.00,VWS V13.01,2013-04-04 05:52:00,
2013-04-04 01:57:00,18.8,15.3,30.52,NW,307,0.0,5.0,86,0.00,,---,0.00,VWS V13.01,2013-04-04 05:57:00,
2013-04-04 02:03:00,18.8,15.1,30.52,NW,307,1.0,2.0,85,0.00,,---,0.00,VWS V13.01,2013-04-04 06:03:00,
2013-04-04 02:08:00,18.6,14.9,30.52,NW,307,0.0,3.0,85,0.00,,---,0.00,VWS V13.01,2013-04-04 06:08:00,
2013-04-04 02:13:00,18.5,15.0,30.52,NW,307,0.0,3.0,86,0.00,,---,0.00,VWS V13.01,2013-04-04 06:13:00,
2013-04-04 02:18:00,18.3,14.8,30.52,NW,307,0.0,3.0,86,0.00,,---,0.00,VWS V13.01,2013-04-04 06:18:00,
2013-04-04 02:23:00,18.2,14.7,30.53,NW,307,0.0,3.0,86,0.00,,---,0.00,VWS V13.01,2013-04-04 06:23:00,
2013-04-04 02:28:00,18.2,14.7,30.53,NW,307,0.0,3.0,86,0.00,,---,0.00,VWS V13.01,2013-04-04 06:28:00,
2013-04-04 02:33:00,18.2,14.7,30.53,NW,307,0.0,0.0,86,0.00,,---,0.00,VWS V13.01,2013-04-04 06:33:00,
2013-04-04 02:38:00,18.0,14.8,30.54,NW,307,0.0,0.0,87,0.00,,---,0.00,VWS V13.01,2013-04-04 06:38:00,
2013-04-04 02:44:00,18.1,14.9,30.53,NW,307,0.0,0.0,87,0.00,,---,0.00,VWS V13.01,2013-04-04 06:44:00,
2013-04-04 02:49:00,18.1,14.9,30.54,NW,307,0.0,0.0,87,0.00,,---,0.00,VWS V13.01,2013-04-04 06:49:00,
2013-04-04 02:54:00,18.0,14.8,30.53,NW,307,0.0,0.0,87,0.00,,---,0.00,VWS V13.01,2013-04-04 06:54:00,
2013-04-04 03:00:00,18.1,14.9,30.54,NW,307,0.0,0.0,87,0.00,,---,0.00,VWS V13.01,2013-04-04 07:00:00,
2013-04-04 03:05:00,18.2,15.0,30.53,NW,307,0.0,0.0,87,0.00,,---,0.00,VWS V13.01,2013-04-04 07:05:00,
2013-04-04 03:10:00,18.2,15.0,30.53,NW,307,0.0,0.0,87,0.00,,---,0.00,VWS V13.01,2013-04-04 07:10:00,
2013-04-04 03:15:00,18.2,15.0,30.53,NW,307,0.0,0.0,87,0.00,,---,0.00,VWS V13.01,2013-04-04 07:15:00,
2013-04-04 03:21:00,18.4,15.2,30.53,NW,307,0.0,0.0,87,0.00,,---,0.00,VWS V13.01,2013-04-04 07:21:00,
2013-04-04 03:26:00,18.2,15.0,30.53,NW,307,0.0,0.0,87,0.00,,---,0.00,VWS V13.01,2013-04-04 07:26:00,
2013-04-04 03:31:00,17.8,14.6,30.52,NW,307,0.0,0.0,87,0.00,,---,0.00,VWS V13.01,2013-04-04 07:31:00,
2013-04-04 03:37:00,17.5,14.3,30.52,NW,307,0.0,0.0,87,0.00,,---,0.00,VWS V13.01,2013-04-04 07:37:00,
2013-04-04 03:42:00,17.3,14.4,30.52,NW,307,0.0,0.0,88,0.00,,---,0.00,VWS V13.01,2013-04-04 07:42:00,
2013-04-04 03:47:00,17.6,14.7,30.53,NW,307,0.0,0.0,88,0.00,,---,0.00,VWS V13.01,2013-04-04 07:47:00,
2013-04-04 03:52:00,18.0,15.1,30.53,NW,307,0.0,0.0,88,0.00,,---,0.00,VWS V13.01,2013-04-04 07:52:00,
2013-04-04 03:57:00,18.6,15.6,30.52,NW,307,0.0,0.0,88,0.00,,---,0.00,VWS V13.01,2013-04-04 07:57:00,
2013-04-04 04:03:00,18.6,15.4,30.53,NW,307,0.0,0.0,87,0.00,,---,0.00,VWS V13.01,2013-04-04 08:03:00,
2013-04-04 04:08:00,18.0,14.8,30.53,NW,307,0.0,0.0,87,0.00,,---,0.00,VWS V13.01,2013-04-04 08:08:00,
2013-04-04 04:13:00,17.7,14.8,30.52,NW,307,0.0,0.0,88,0.00,,---,0.00,VWS V13.01,2013-04-04 08:13:00,
2013-04-04 04:19:00,17.1,14.2,30.52,NW,307,0.0,0.0,88,0.00,,---,0.00,VWS V13.01,2013-04-04 08:19:00,
2013-04-04 04:25:00,16.7,13.8,30.52,NW,307,0.0,0.0,88,0.00,,---,0.00,VWS V13.01,2013-04-04 08:25:00,
2013-04-04 04:30:00,17.0,14.1,30.52,NW,307,0.0,0.0,88,0.00,,---,0.00,VWS V13.01,2013-04-04 08:30:00,
2013-04-04 04:35:00,17.1,14.2,30.51,NW,307,0.0,0.0,88,0.00,,---,0.00,VWS V13.01,2013-04-04 08:35:00,
2013-04-04 04:42:00,16.9,14.0,30.51,NW,307,0.0,0.0,88,0.00,,---,0.00,VWS V13.01,2013-04-04 08:42:00,
2013-04-04 04:47:00,16.7,13.8,30.51,NW,307,0.0,0.0,88,0.00,,---,0.00,VWS V13.01,2013-04-04 08:47:00,
2013-04-04 04:52:00,16.6,13.9,30.50,NW,307,0.0,0.0,89,0.00,,---,0.00,VWS V13.01,2013-04-04 08:52:00,
2013-04-04 04:57:00,16.1,13.4,30.51,NW,307,0.0,0.0,89,0.00,,---,0.00,VWS V13.01,2013-04-04 08:57:00,
2013-04-04 05:03:00,16.0,13.3,30.51,NW,307,0.0,0.0,89,0.00,,---,0.00,VWS V13.01,2013-04-04 09:03:00,
2013-04-04 05:08:00,16.3,13.6,30.51,NW,307,0.0,0.0,89,0.00,,---,0.00,VWS V13.01,2013-04-04 09:08:00,
2013-04-04 05:13:00,16.7,14.0,30.51,NW,307,0.0,0.0,89,0.00,,---,0.00,VWS V13.01,2013-04-04 09:13:00,
2013-04-04 05:19:00,16.8,14.1,30.51,NW,307,0.0,0.0,89,0.00,,---,0.00,VWS V13.01,2013-04-04 09:19:00,
2013-04-04 05:24:00,16.8,14.1,30.52,NW,307,0.0,0.0,89,0.00,,---,0.00,VWS V13.01,2013-04-04 09:24:00,
2013-04-04 05:29:00,16.6,13.9,30.52,NW,307,0.0,0.0,89,0.00,,---,0.00,VWS V13.01,2013-04-04 09:29:00,
2013-04-04 05:35:00,16.3,13.6,30.52,NW,307,0.0,0.0,89,0.00,,---,0.00,VWS V13.01,2013-04-04 09:35:00,
2013-04-04 05:40:00,16.1,13.4,30.52,NW,307,0.0,0.0,89,0.00,,---,0.00,VWS V13.01,2013-04-04 09:40:00,
2013-04-04 05:45:00,16.1,13.4,30.52,NW,307,0.0,0.0,89,0.00,,---,0.00,VWS V13.01,2013-04-04 09:45:00,
2013-04-04 05:52:00,16.0,13.3,30.53,NW,307,0.0,0.0,89,0.00,,---,0.00,VWS V13.01,2013-04-04 09:52:00,
2013-04-04 05:57:00,16.2,13.5,30.53,NW,307,0.0,0.0,89,0.00,,---,0.00,VWS V13.01,2013-04-04 09:57:00,
2013-04-04 06:02:00,16.2,13.5,30.53,NW,307,0.0,0.0,89,0.00,,---,0.00,VWS V13.01,2013-04-04 10:02:00,
2013-04-04 06:07:00,16.2,13.5,30.53,NW,307,0.0,0.0,89,0.00,,---,0.00,VWS V13.01,2013-04-04 10:07:00,
2013-04-04 06:12:00,16.3,13.6,30.54,NW,307,0.0,0.0,89,0.00,,---,0.00,VWS V13.01,2013-04-04 10:12:00,
2013-04-04 06:17:00,16.4,13.7,30.53,NW,307,0.0,0.0,89,0.00,,---,0.00,VWS V13.01,2013-04-04 10:17:00,
2013-04-04 06:22:00,16.3,13.6,30.53,NW,307,0.0,0.0,89,0.00,,---,0.00,VWS V13.01,2013-04-04 10:22:00,
2013-04-04 06:27:00,16.2,13.5,30.53,NW,307,0.0,0.0,89,0.00,,---,0.00,VWS V13.01,2013-04-04 10:27:00,
2013-04-04 06:33:00,15.8,13.1,30.53,NW,307,0.0,0.0,89,0.00,,---,0.00,VWS V13.01,2013-04-04 10:33:00,
2013-04-04 06:38:00,15.4,12.7,30.53,NW,307,0.0,0.0,89,0.00,,---,0.00,VWS V13.01,2013-04-04 10:38:00,
2013-04-04 06:43:00,15.3,12.6,30.52,NW,307,0.0,0.0,89,0.00,,---,0.00,VWS V13.01,2013-04-04 10:43:00,
2013-04-04 06:49:00,15.3,12.9,30.53,NW,307,0.0,0.0,90,0.00,,---,0.00,VWS V13.01,2013-04-04 10:49:00,
2013-04-04 06:55:00,15.6,13.2,30.53,NW,307,0.0,0.0,90,0.00,,---,0.00,VWS V13.01,2013-04-04 10:55:00,
2013-04-04 07:00:00,16.0,13.6,30.53,NW,307,0.0,0.0,90,0.00,,---,0.00,VWS V13.01,2013-04-04 11:00:00,
2013-04-04 07:05:00,16.0,13.6,30.53,NW,307,0.0,0.0,90,0.00,,---,0.00,VWS V13.01,2013-04-04 11:05:00,
2013-04-04 07:11:00,15.8,13.4,30.53,NW,307,0.0,0.0,90,0.00,,---,0.00,VWS V13.01,2013-04-04 11:11:00,
2013-04-04 07:16:00,15.4,12.7,30.53,NW,307,0.0,0.0,89,0.00,,---,0.00,VWS V13.01,2013-04-04 11:16:00,
2013-04-04 07:21:00,15.1,12.7,30.52,NW,307,0.0,0.0,90,0.00,,---,0.00,VWS V13.01,2013-04-04 11:21:00,
2013-04-04 07:26:00,15.3,12.9,30.52,NW,307,0.0,0.0,90,0.00,,---,0.00,VWS V13.01,2013-04-04 11:26:00,
2013-04-04 07:32:00,16.0,13.6,30.52,NW,307,0.0,0.0,90,0.00,,---,0.00,VWS V13.01,2013-04-04 11:32:00,
2013-04-04 07:38:00,16.5,14.1,30.52,NW,307,0.0,0.0,90,0.00,,---,0.00,VWS V13.01,2013-04-04 11:38:00,
2013-04-04 07:43:00,17.1,14.7,30.51,NW,307,0.0,1.0,90,0.00,,---,0.00,VWS V13.01,2013-04-04 11:43:00,
2013-04-04 07:49:00,17.7,15.3,30.51,NW,307,0.0,1.0,90,0.00,,---,0.00,VWS V13.01,2013-04-04 11:49:00,
2013-04-04 07:54:00,18.0,15.6,30.52,NW,307,0.0,1.0,90,0.00,,---,0.00,VWS V13.01,2013-04-04 11:54:00,
2013-04-04 08:00:00,18.0,15.3,30.52,NW,307,0.0,1.0,89,0.00,,---,0.00,VWS V13.01,2013-04-04 12:00:00,
2013-04-04 08:05:00,18.1,15.4,30.52,NW,307,0.0,0.0,89,0.00,,---,0.00,VWS V13.01,2013-04-04 12:05:00,
2013-04-04 08:10:00,18.2,15.5,30.52,NW,307,0.0,0.0,89,0.00,,---,0.00,VWS V13.01,2013-04-04 12:10:00,
2013-04-04 08:15:00,18.6,15.9,30.51,NW,307,0.0,0.0,89,0.00,,---,0.00,VWS V13.01,2013-04-04 12:15:00,
2013-04-04 08:21:00,19.3,16.3,30.51,NW,307,0.0,0.0,88,0.00,,---,0.00,VWS V13.01,2013-04-04 12:21:00,
2013-04-04 08:27:00,20.1,17.1,30.51,NW,307,0.0,0.0,88,0.00,,---,0.00,VWS V13.01,2013-04-04 12:27:00,
2013-04-04 08:32:00,20.5,17.2,30.51,NW,307,0.0,0.0,87,0.00,,---,0.00,VWS V13.01,2013-04-04 12:32:00,
2013-04-04 08:37:00,21.0,17.8,30.51,NW,307,0.0,0.0,87,0.00,,---,0.00,VWS V13.01,2013-04-04 12:37:00,
2013-04-04 08:42:00,21.6,18.3,30.51,NW,307,0.0,0.0,87,0.00,,---,0.00,VWS V13.01,2013-04-04 12:42:00,
2013-04-04 08:47:00,22.1,18.6,30.50,NW,307,0.0,1.0,86,0.00,,---,0.00,VWS V13.01,2013-04-04 12:47:00,
2013-04-04 08:53:00,22.6,18.8,30.50,NW,307,0.0,1.0,85,0.00,,---,0.00,VWS V13.01,2013-04-04 12:53:00,
2013-04-04 08:58:00,23.1,19.3,30.50,NW,307,0.0,1.0,85,0.00,,---,0.00,VWS V13.01,2013-04-04 12:58:00,
2013-04-04 09:03:00,23.9,19.8,30.50,NW,307,0.0,0.0,84,0.00,,---,0.00,VWS V13.01,2013-04-04 13:03:00,
2013-04-04 09:08:00,24.5,20.1,30.49,NW,307,0.0,0.0,83,0.00,,---,0.00,VWS V13.01,2013-04-04 13:08:00,
2013-04-04 09:13:00,24.7,20.0,30.48,NW,307,0.0,0.0,82,0.00,,---,0.00,VWS V13.01,2013-04-04 13:13:00,
2013-04-04 09:19:00,25.2,20.5,30.48,NW,307,0.0,1.0,82,0.00,,---,0.00,VWS V13.01,2013-04-04 13:19:00,
2013-04-04 09:25:00,25.8,20.5,30.47,NW,307,0.0,1.0,80,0.00,,---,0.00,VWS V13.01,2013-04-04 13:25:00,
2013-04-04 09:30:00,26.5,21.2,30.47,NW,307,0.0,1.0,80,0.00,,---,0.00,VWS V13.01,2013-04-04 13:30:00,
2013-04-04 09:35:00,27.2,21.0,30.46,NW,307,0.0,0.0,77,0.00,,---,0.00,VWS V13.01,2013-04-04 13:35:00,
2013-04-04 09:40:00,27.7,21.1,30.46,NW,307,0.0,1.0,76,0.00,,---,0.00,VWS V13.01,2013-04-04 13:40:00,
2013-04-04 09:46:00,28.3,21.7,30.45,NW,307,0.0,1.0,76,0.00,,---,0.00,VWS V13.01,2013-04-04 13:46:00,
2013-04-04 09:51:00,29.3,22.1,30.45,NW,307,0.0,1.0,74,0.00,,---,0.00,VWS V13.01,2013-04-04 13:51:00,
2013-04-04 09:56:00,29.8,22.5,30.45,NW,307,0.0,1.0,74,0.00,,---,0.00,VWS V13.01,2013-04-04 13:56:00,
2013-04-04 10:01:00,30.5,22.2,30.44,NW,307,0.0,0.0,71,0.00,,---,0.00,VWS V13.01,2013-04-04 14:01:00,
2013-04-04 10:07:00,31.4,22.4,30.43,NW,310,0.0,2.0,69,0.00,,---,0.00,VWS V13.01,2013-04-04 14:07:00,
2013-04-04 10:12:00,31.3,20.5,30.43,NW,310,0.0,2.0,64,0.00,,---,0.00,VWS V13.01,2013-04-04 14:12:00,
2013-04-04 10:17:00,32.1,21.3,30.43,NW,310,0.0,2.0,64,0.00,,---,0.00,VWS V13.01,2013-04-04 14:17:00,
2013-04-04 10:22:00,32.3,20.4,30.43,NW,310,1.0,5.0,61,0.00,,---,0.00,VWS V13.01,2013-04-04 14:22:00,
2013-04-04 10:27:00,32.1,20.6,30.43,NW,310,0.0,5.0,62,0.00,,---,0.00,VWS V13.01,2013-04-04 14:27:00,
2013-04-04 10:33:00,32.5,19.8,30.43,NW,310,0.0,0.0,59,0.00,,---,0.00,VWS V13.01,2013-04-04 14:33:00,
2013-04-04 10:38:00,33.1,19.1,30.43,NW,310,0.0,0.0,56,0.00,,---,0.00,VWS V13.01,2013-04-04 14:38:00,
2013-04-04 10:43:00,34.0,20.0,30.42,NW,310,0.0,1.0,56,0.00,,---,0.00,VWS V13.01,2013-04-04 14:43:00,
2013-04-04 10:49:00,34.4,20.3,30.42,NW,310,0.0,4.0,56,0.00,,---,0.00,VWS V13.01,2013-04-04 14:49:00,
2013-04-04 10:54:00,34.5,18.7,30.42,NW,310,0.0,4.0,52,0.00,,---,0.00,VWS V13.01,2013-04-04 14:54:00,
2013-04-04 10:59:00,35.0,19.2,30.41,NW,310,0.0,4.0,52,0.00,,---,0.00,VWS V13.01,2013-04-04 14:59:00,
2013-04-04 11:04:00,35.5,19.6,30.41,NW,325,2.0,3.0,52,0.00,,---,0.00,VWS V13.01,2013-04-04 15:04:00,
2013-04-04 11:10:00,35.8,17.6,30.41,NW,326,0.0,3.0,47,0.00,,---,0.00,VWS V13.01,2013-04-04 15:10:00,
2013-04-04 11:15:00,36.6,18.3,30.40,NW,326,0.0,3.0,47,0.00,,---,0.00,VWS V13.01,2013-04-04 15:15:00,
2013-04-04 11:20:00,37.2,19.3,30.40,NW,326,0.0,3.0,48,0.00,,---,0.00,VWS V13.01,2013-04-04 15:20:00,
2013-04-04 11:26:00,37.7,19.3,30.39,NW,326,0.0,3.0,47,0.00,,---,0.00,VWS V13.01,2013-04-04 15:26:00,
2013-04-04 11:31:00,38.0,18.0,30.39,NW,326,0.0,1.0,44,0.00,,---,0.00,VWS V13.01,2013-04-04 15:31:00,
2013-04-04 11:37:00,38.4,17.3,30.39,NW,326,0.0,1.0,42,0.00,,---,0.00,VWS V13.01,2013-04-04 15:37:00,
2013-04-04 11:42:00,38.9,16.6,30.38,NW,326,0.0,2.0,40,0.00,,---,0.00,VWS V13.01,2013-04-04 15:42:00,
2013-04-04 11:47:00,39.4,16.5,30.38,NW,326,0.0,2.0,39,0.00,,---,0.00,VWS V13.01,2013-04-04 15:47:00,
2013-04-04 11:52:00,39.8,16.3,30.38,NW,318,1.0,5.0,38,0.00,,---,0.00,VWS V13.01,2013-04-04 15:52:00,
2013-04-04 11:57:00,40.6,15.8,30.38,SW,233,4.0,7.0,36,0.00,,---,0.00,VWS V13.01,2013-04-04 15:57:00,
2013-04-04 12:02:00,41.2,15.0,30.37,SSW,207,11.0,11.0,34,0.00,,---,0.00,VWS V13.01,2013-04-04 16:02:00,
2013-04-04 12:07:00,41.0,15.5,30.37,NW,311,0.0,16.0,35,0.00,,---,0.00,VWS V13.01,2013-04-04 16:07:00,
2013-04-04 12:13:00,41.2,14.3,30.37,WSW,256,8.0,16.0,33,0.00,,---,0.00,VWS V13.01,2013-04-04 16:13:00,
2013-04-04 12:18:00,41.6,15.3,30.36,West,275,8.0,16.0,34,0.00,,---,0.00,VWS V13.01,2013-04-04 16:18:00,
2013-04-04 12:24:00,42.5,16.1,30.35,West,278,4.0,16.0,34,0.00,,---,0.00,VWS V13.01,2013-04-04 16:24:00,
2013-04-04 12:29:00,42.6,13.4,30.35,NW,326,0.0,16.0,30,0.00,,---,0.00,VWS V13.01,2013-04-04 16:29:00,
2013-04-04 12:35:00,42.8,16.4,30.34,West,275,1.0,9.0,34,0.00,,---,0.00,VWS V13.01,2013-04-04 16:35:00,
2013-04-04 12:40:00,43.3,14.7,30.34,WSW,256,0.0,9.0,31,0.00,,---,0.00,VWS V13.01,2013-04-04 16:40:00,
2013-04-04 12:45:00,43.8,15.1,30.34,WSW,246,8.0,9.0,31,0.00,,---,0.00,VWS V13.01,2013-04-04 16:45:00,
2013-04-04 12:50:00,44.0,16.8,30.33,West,278,10.0,10.0,33,0.00,,---,0.00,VWS V13.01,2013-04-04 16:50:00,
2013-04-04 12:56:00,44.2,16.2,30.33,West,277,7.0,14.0,32,0.00,,---,0.00,VWS V13.01,2013-04-04 16:56:00,
2013-04-04 13:01:00,44.7,15.9,30.32,WSW,257,8.0,12.0,31,0.00,,---,0.00,VWS V13.01,2013-04-04 17:01:00,
2013-04-04 13:07:00,44.2,14.0,30.32,West,269,0.0,12.0,29,0.00,,---,0.00,VWS V13.01,2013-04-04 17:07:00,
2013-04-04 13:12:00,44.7,18.1,30.31,WNW,284,9.0,13.0,34,0.00,,---,0.00,VWS V13.01,2013-04-04 17:12:00,
2013-04-04 13:17:00,45.0,19.0,30.30,WNW,292,9.0,13.0,35,0.00,,---,0.00,VWS V13.01,2013-04-04 17:17:00,
2013-04-04 13:23:00,45.0,18.3,30.30,NW,304,8.0,13.0,34,0.00,,---,0.00,VWS V13.01,2013-04-04 17:23:00,
2013-04-04 13:28:00,45.6,14.4,30.29,WSW,243,4.0,13.0,28,0.00,,---,0.00,VWS V13.01,2013-04-04 17:28:00,
2013-04-04 13:33:00,45.9,19.1,30.29,WNW,296,7.0,13.0,34,0.00,,---,0.00,VWS V13.01,2013-04-04 17:33:00,
2013-04-04 13:38:00,45.6,18.2,30.28,NW,310,5.0,13.0,33,0.00,,---,0.00,VWS V13.01,2013-04-04 17:38:00,
2013-04-04 13:43:00,45.6,18.2,30.28,WNW,284,7.0,13.0,33,0.00,,---,0.00,VWS V13.01,2013-04-04 17:43:00,
2013-04-04 13:49:00,45.8,16.1,30.28,WSW,254,2.0,13.0,30,0.00,,---,0.00,VWS V13.01,2013-04-04 17:49:00,
2013-04-04 13:54:00,45.9,14.6,30.28,WSW,241,7.0,13.0,28,0.00,,---,0.00,VWS V13.01,2013-04-04 17:54:00,
2013-04-04 13:59:00,46.2,15.7,30.27,WSW,242,8.0,13.0,29,0.00,,---,0.00,VWS V13.01,2013-04-04 17:59:00,
2013-04-04 14:05:00,46.3,14.2,30.26,West,262,1.0,10.0,27,0.00,,---,0.00,VWS V13.01,2013-04-04 18:05:00,
2013-04-04 14:10:00,46.9,15.5,30.26,SW,234,2.0,10.0,28,0.00,,---,0.00,VWS V13.01,2013-04-04 18:10:00,
2013-04-04 14:15:00,46.9,14.7,30.25,East,101,0.0,10.0,27,0.00,,---,0.00,VWS V13.01,2013-04-04 18:15:00,
2013-04-04 14:20:00,47.2,14.9,30.24,SE,133,5.0,10.0,27,0.00,,---,0.00,VWS V13.01,2013-04-04 18:20:00,
2013-04-04 14:25:00,48.1,18.1,30.24,WNW,289,8.0,11.0,30,0.00,,---,0.00,VWS V13.01,2013-04-04 18:25:00,
2013-04-04 14:32:00,48.5,16.9,30.24,West,279,5.0,6.0,28,0.00,,---,0.00,VWS V13.01,2013-04-04 18:32:00,
2013-04-04 14:37:00,49.0,17.3,30.23,South,184,4.0,8.0,28,0.00,,---,0.00,VWS V13.01,2013-04-04 18:37:00,
2013-04-04 14:42:00,48.8,15.4,30.22,SSW,210,0.0,10.0,26,0.00,,---,0.00,VWS V13.01,2013-04-04 18:42:00,
2013-04-04 14:47:00,49.2,15.8,30.22,SW,218,7.0,10.0,26,0.00,,---,0.00,VWS V13.01,2013-04-04 18:47:00,
2013-04-04 14:53:00,49.7,17.9,30.21,NW,321,7.0,10.0,28,0.00,,---,0.00,VWS V13.01,2013-04-04 18:53:00,
2013-04-04 14:58:00,50.3,20.1,30.21,WNW,298,1.0,10.0,30,0.00,,---,0.00,VWS V13.01,2013-04-04 18:58:00,
2013-04-04 15:03:00,50.8,18.9,30.20,NW,304,3.0,6.0,28,0.00,,---,0.00,VWS V13.01,2013-04-04 19:03:00,
2013-04-04 15:08:00,51.3,20.9,30.19,West,276,12.0,12.0,30,0.00,,---,0.00,VWS V13.01,2013-04-04 19:08:00,
2013-04-04 15:14:00,52.3,18.5,30.19,West,272,0.0,12.0,26,0.00,,---,0.00,VWS V13.01,2013-04-04 19:14:00,
2013-04-04 15:19:00,52.9,23.9,30.19,WNW,300,5.0,13.0,32,0.00,,---,0.00,VWS V13.01,2013-04-04 19:19:00,
2013-04-04 15:24:00,53.0,19.0,30.19,WNW,287,23.0,24.0,26,0.00,,---,0.00,VWS V13.01,2013-04-04 19:24:00,
2013-04-04 15:30:00,52.8,18.0,30.19,WNW,298,8.0,28.0,25,0.00,,---,0.00,VWS V13.01,2013-04-04 19:30:00,
2013-04-04 15:35:00,52.6,18.7,30.19,West,281,12.0,18.0,26,0.00,,---,0.00,VWS V13.01,2013-04-04 19:35:00,
2013-04-04 15:40:00,52.3,14.6,30.18,WNW,284,10.0,22.0,22,0.00,,---,0.00,VWS V13.01,2013-04-04 19:40:00,
2013-04-04 15:45:00,52.1,15.4,30.17,WNW,283,9.0,22.0,23,0.00,,---,0.00,VWS V13.01,2013-04-04 19:45:00,
2013-04-04 15:51:00,51.9,19.0,30.17,West,260,4.0,22.0,27,0.00,,---,0.00,VWS V13.01,2013-04-04 19:51:00,
2013-04-04 15:56:00,51.9,14.3,30.16,NW,304,3.0,22.0,22,0.00,,---,0.00,VWS V13.01,2013-04-04 19:56:00,
2013-04-04 16:02:00,52.2,19.2,30.16,WNW,295,9.0,19.0,27,0.00,,---,0.00,VWS V13.01,2013-04-04 20:02:00,
2013-04-04 16:07:00,52.0,17.3,30.16,WNW,299,12.0,19.0,25,0.00,,---,0.00,VWS V13.01,2013-04-04 20:07:00,
2013-04-04 16:12:00,52.2,16.5,30.16,West,261,5.0,19.0,24,0.00,,---,0.00,VWS V13.01,2013-04-04 20:12:00,
2013-04-04 16:17:00,52.2,14.5,30.15,NNW,327,5.0,19.0,22,0.00,,---,0.00,VWS V13.01,2013-04-04 20:17:00,
2013-04-04 16:22:00,52.4,14.7,30.15,ESE,105,0.0,19.0,22,0.00,,---,0.00,VWS V13.01,2013-04-04 20:22:00,
2013-04-04 16:27:00,52.7,17.9,30.14,West,267,12.0,19.0,25,0.00,,---,0.00,VWS V13.01,2013-04-04 20:27:00,
2013-04-04 16:33:00,52.8,15.0,30.14,WNW,292,3.0,12.0,22,0.00,,---,0.00,VWS V13.01,2013-04-04 20:33:00,
2013-04-04 16:38:00,52.8,15.0,30.14,West,273,3.0,12.0,22,0.00,,---,0.00,VWS V13.01,2013-04-04 20:38:00,
2013-04-04 16:43:00,52.9,14.1,30.13,West,281,0.0,12.0,21,0.00,,---,0.00,VWS V13.01,2013-04-04 20:43:00,
2013-04-04 16:48:00,53.1,13.1,30.13,WNW,288,4.0,12.0,20,0.00,,---,0.00,VWS V13.01,2013-04-04 20:48:00,
2013-04-04 16:54:00,53.5,13.4,30.13,WNW,288,8.0,12.0,20,0.00,,---,0.00,VWS V13.01,2013-04-04 20:54:00,
2013-04-04 17:00:00,53.6,14.6,30.12,West,269,4.0,12.0,21,0.00,,---,0.00,VWS V13.01,2013-04-04 21:00:00,
2013-04-04 17:05:00,53.7,14.7,30.12,West,280,5.0,15.0,21,0.00,,---,0.00,VWS V13.01,2013-04-04 21:05:00,
2013-04-04 17:12:00,53.6,16.7,30.11,WNW,299,11.0,19.0,23,0.00,,---,0.00,VWS V13.01,2013-04-04 21:12:00,
2013-04-04 17:17:00,53.2,17.4,30.11,West,277,7.0,19.0,24,0.00,,---,0.00,VWS V13.01,2013-04-04 21:17:00,
2013-04-04 17:22:00,53.3,15.4,30.10,West,259,0.0,19.0,22,0.00,,---,0.00,VWS V13.01,2013-04-04 21:22:00,
2013-04-04 17:27:00,53.6,15.7,30.10,NW,313,0.0,19.0,22,0.00,,---,0.00,VWS V13.01,2013-04-04 21:27:00,
2013-04-04 17:32:00,54.0,16.0,30.09,WSW,254,1.0,8.0,22,0.00,,---,0.00,VWS V13.01,2013-04-04 21:32:00,
2013-04-04 17:37:00,54.0,17.1,30.09,West,270,6.0,14.0,23,0.00,,---,0.00,VWS V13.01,2013-04-04 21:37:00,
2013-04-04 17:42:00,53.9,17.0,30.09,West,267,7.0,14.0,23,0.00,,---,0.00,VWS V13.01,2013-04-04 21:42:00,
2013-04-04 17:48:00,53.6,13.5,30.09,SSW,209,0.0,14.0,20,0.00,,---,0.00,VWS V13.01,2013-04-04 21:48:00,
2013-04-04 17:53:00,53.4,14.5,30.09,SW,226,7.0,14.0,21,0.00,,---,0.00,VWS V13.01,2013-04-04 21:53:00,
2013-04-04 17:58:00,53.1,14.2,30.09,West,263,4.0,14.0,21,0.00,,---,0.00,VWS V13.01,2013-04-04 21:58:00,
2013-04-04 18:04:00,52.9,16.1,30.09,NW,317,2.0,9.0,23,0.00,,---,0.00,VWS V13.01,2013-04-04 22:04:00,
2013-04-04 18:09:00,53.0,11.9,30.08,West,276,0.0,10.0,19,0.00,,---,0.00,VWS V13.01,2013-04-04 22:09:00,
2013-04-04 18:14:00,53.4,13.4,30.08,West,273,0.0,10.0,20,0.00,,---,0.00,VWS V13.01,2013-04-04 22:14:00,
2013-04-04 18:20:00,53.0,13.0,30.08,West,265,5.0,18.0,20,0.00,,---,0.00,VWS V13.01,2013-04-04 22:20:00,
2013-04-04 18:25:00,52.9,16.1,30.08,West,262,1.0,18.0,23,0.00,,---,0.00,VWS V13.01,2013-04-04 22:25:00,
2013-04-04 18:30:00,52.9,17.1,30.08,West,271,0.0,18.0,24,0.00,,---,0.00,VWS V13.01,2013-04-04 22:30:00,
2013-04-04 18:35:00,52.4,13.6,30.07,South,190,7.0,8.0,21,0.00,,---,0.00,VWS V13.01,2013-04-04 22:35:00,
2013-04-04 18:41:00,52.4,12.5,30.07,SSW,212,1.0,9.0,20,0.00,,---,0.00,VWS V13.01,2013-04-04 22:41:00,
2013-04-04 18:46:00,52.1,14.4,30.07,West,276,0.0,9.0,22,0.00,,---,0.00,VWS V13.01,2013-04-04 22:46:00,
2013-04-04 18:52:00,52.0,18.2,30.07,West,279,0.0,9.0,26,0.00,,---,0.00,VWS V13.01,2013-04-04 22:52:00,
2013-04-04 18:57:00,50.9,19.8,30.08,West,279,0.0,9.0,29,0.00,,---,0.00,VWS V13.01,2013-04-04 22:57:00,
2013-04-04 19:02:00,49.1,19.0,30.07,West,279,0.0,1.0,30,0.00,,---,0.00,VWS V13.01,2013-04-04 23:02:00,
2013-04-04 19:08:00,48.2,16.6,30.07,West,279,0.0,1.0,28,0.00,,---,0.00,VWS V13.01,2013-04-04 23:08:00,
2013-04-04 19:13:00,47.6,16.1,30.07,West,279,0.0,3.0,28,0.00,,---,0.00,VWS V13.01,2013-04-04 23:13:00,
2013-04-04 19:18:00,47.0,18.7,30.07,West,279,0.0,3.0,32,0.00,,---,0.00,VWS V13.01,2013-04-04 23:18:00,
2013-04-04 19:23:00,45.9,17.0,30.07,WSW,238,6.0,7.0,31,0.00,,---,0.00,VWS V13.01,2013-04-04 23:23:00,
2013-04-04 19:30:00,45.3,17.2,30.07,WSW,237,0.0,7.0,32,0.00,,---,0.00,VWS V13.01,2013-04-04 23:30:00,
2013-04-04 19:35:00,44.1,20.7,30.07,WSW,237,0.0,1.0,39,0.00,,---,0.00,VWS V13.01,2013-04-04 23:35:00,
2013-04-04 19:40:00,42.9,23.0,30.06,WSW,238,0.0,1.0,45,0.00,,---,0.00,VWS V13.01,2013-04-04 23:40:00,
2013-04-04 19:45:00,42.0,22.2,30.06,WSW,238,0.0,1.0,45,0.00,,---,0.00,VWS V13.01,2013-04-04 23:45:00,
2013-04-04 19:50:00,41.2,21.5,30.06,WSW,238,0.0,1.0,45,0.00,,---,0.00,VWS V13.01,2013-04-04 23:50:00,
2013-04-04 19:55:00,40.9,22.7,30.05,WSW,238,0.0,1.0,48,0.00,,---,0.00,VWS V13.01,2013-04-04 23:55:00,
2013-04-04 20:00:00,40.3,25.9,30.05,WSW,238,0.0,0.0,56,0.00,,---,0.00,VWS V13.01,2013-04-05 00:00:00,
2013-04-04 20:05:00,39.3,26.2,30.05,WSW,237,0.0,0.0,59,0.00,,---,0.00,VWS V13.01,2013-04-05 00:05:00,
2013-04-04 20:12:00,38.8,25.3,30.05,WSW,238,0.0,0.0,58,0.00,,---,0.00,VWS V13.01,2013-04-05 00:12:00,
2013-04-04 20:17:00,38.6,25.1,30.05,WSW,238,0.0,0.0,58,0.00,,---,0.00,VWS V13.01,2013-04-05 00:17:00,
2013-04-04 20:22:00,38.4,22.3,30.05,WSW,238,0.0,1.0,52,0.00,,---,0.00,VWS V13.01,2013-04-05 00:22:00,
2013-04-04 20:27:00,38.2,23.0,30.04,WSW,238,0.0,1.0,54,0.00,,---,0.00,VWS V13.01,2013-04-05 00:27:00,
2013-04-04 20:33:00,37.9,25.7,30.04,WSW,237,0.0,0.0,61,0.00,,---,0.00,VWS V13.01,2013-04-05 00:33:00,
2013-04-04 20:38:00,36.8,25.0,30.04,WSW,237,0.0,0.0,62,0.00,,---,0.00,VWS V13.01,2013-04-05 00:38:00,
2013-04-04 20:44:00,36.0,25.0,30.04,WSW,238,0.0,0.0,64,0.00,,---,0.00,VWS V13.01,2013-04-05 00:44:00,
2013-04-04 20:49:00,35.8,25.6,30.04,WSW,237,0.0,0.0,66,0.00,,---,0.00,VWS V13.01,2013-04-05 00:49:00,
2013-04-04 20:54:00,35.3,23.6,30.04,WSW,238,0.0,0.0,62,0.00,,---,0.00,VWS V13.01,2013-04-05 00:54:00,
2013-04-04 21:00:00,34.9,24.0,30.04,WSW,237,0.0,0.0,64,0.00,,---,0.00,VWS V13.01,2013-04-05 01:00:00,
2013-04-04 21:05:00,34.4,23.9,30.05,WSW,238,0.0,0.0,65,0.00,,---,0.00,VWS V13.01,2013-04-05 01:05:00,
2013-04-04 21:10:00,33.6,23.1,30.05,WSW,238,0.0,0.0,65,0.00,,---,0.00,VWS V13.01,2013-04-05 01:10:00,
2013-04-04 21:16:00,33.2,24.1,30.05,WSW,237,0.0,0.0,69,0.00,,---,0.00,VWS V13.01,2013-04-05 01:16:00,
2013-04-04 21:22:00,32.7,24.4,30.04,WSW,238,0.0,0.0,71,0.00,,---,0.00,VWS V13.01,2013-04-05 01:22:00,
2013-04-04 21:27:00,32.4,24.4,30.04,WSW,238,0.0,0.0,72,0.00,,---,0.00,VWS V13.01,2013-04-05 01:27:00,
2013-04-04 21:33:00,32.3,24.6,30.04,WSW,238,0.0,0.0,73,0.00,,---,0.00,VWS V13.01,2013-04-05 01:33:00,
2013-04-04 21:38:00,32.1,23.8,30.04,WSW,238,0.0,0.0,71,0.00,,---,0.00,VWS V13.01,2013-04-05 01:38:00,
2013-04-04 21:43:00,32.1,23.8,30.04,WSW,238,0.0,0.0,71,0.00,,---,0.00,VWS V13.01,2013-04-05 01:43:00,
2013-04-04 21:48:00,31.6,22.3,30.04,WSW,238,0.0,0.0,68,0.00,,---,0.00,VWS V13.01,2013-04-05 01:48:00,
2013-04-04 21:54:00,31.2,23.9,30.04,WSW,238,0.0,0.0,74,0.00,,---,0.00,VWS V13.01,2013-04-05 01:54:00,
2013-04-04 21:59:00,31.1,24.4,30.04,WSW,238,0.0,0.0,76,0.00,,---,0.00,VWS V13.01,2013-04-05 01:59:00,
2013-04-04 22:05:00,30.5,22.9,30.04,WSW,238,0.0,0.0,73,0.00,,---,0.00,VWS V13.01,2013-04-05 02:05:00,
2013-04-04 22:11:00,30.1,21.5,30.04,WSW,238,0.0,0.0,70,0.00,,---,0.00,VWS V13.01,2013-04-05 02:11:00,
2013-04-04 22:17:00,29.9,21.7,30.04,WSW,238,0.0,1.0,71,0.00,,---,0.00,VWS V13.01,2013-04-05 02:17:00,
2013-04-04 22:22:00,29.9,22.0,30.03,WSW,238,0.0,1.0,72,0.00,,---,0.00,VWS V13.01,2013-04-05 02:22:00,
2013-04-04 22:27:00,30.2,23.2,30.03,WSW,238,0.0,1.0,75,0.00,,---,0.00,VWS V13.01,2013-04-05 02:27:00,
2013-04-04 22:32:00,30.2,22.6,30.04,WSW,238,0.0,0.0,73,0.00,,---,0.00,VWS V13.01,2013-04-05 02:32:00,
2013-04-04 22:37:00,30.1,22.5,30.03,WSW,238,0.0,0.0,73,0.00,,---,0.00,VWS V13.01,2013-04-05 02:37:00,
2013-04-04 22:42:00,29.7,22.4,30.03,WSW,238,0.0,0.0,74,0.00,,---,0.00,VWS V13.01,2013-04-05 02:42:00,
2013-04-04 22:48:00,29.6,22.4,30.03,WSW,238,0.0,0.0,74,0.00,,---,0.00,VWS V13.01,2013-04-05 02:48:00,
2013-04-04 22:53:00,29.7,22.8,30.03,WSW,238,0.0,0.0,75,0.00,,---,0.00,VWS V13.01,2013-04-05 02:53:00,
2013-04-04 22:58:00,29.7,22.8,30.03,WSW,238,0.0,0.0,75,0.00,,---,0.00,VWS V13.01,2013-04-05 02:58:00,
2013-04-04 23:03:00,29.3,21.7,30.03,WSW,238,0.0,0.0,73,0.00,,---,0.00,VWS V13.01,2013-04-05 03:03:00,
2013-04-04 23:09:00,29.2,22.0,30.03,WSW,238,0.0,0.0,74,0.00,,---,0.00,VWS V13.01,2013-04-05 03:09:00,
2013-04-04 23:14:00,29.3,22.7,30.02,WSW,238,0.0,0.0,76,0.00,,---,0.00,VWS V13.01,2013-04-05 03:14:00,
2013-04-04 23:19:00,29.2,22.9,30.02,WSW,238,0.0,0.0,77,0.00,,---,0.00,VWS V13.01,2013-04-05 03:19:00,
2013-04-04 23:24:00,28.6,22.6,30.02,WSW,238,0.0,0.0,78,0.00,,---,0.00,VWS V13.01,2013-04-05 03:24:00,
2013-04-04 23:29:00,28.3,21.1,30.02,WSW,238,0.0,0.0,74,0.00,,---,0.00,VWS V13.01,2013-04-05 03:29:00,
2013-04-04 23:34:00,28.5,22.5,30.02,WSW,238,0.0,0.0,78,0.00,,---,0.00,VWS V13.01,2013-04-05 03:34:00,
2013-04-04 23:40:00,28.3,22.3,30.02,WSW,238,0.0,0.0,78,0.00,,---,0.00,VWS V13.01,2013-04-05 03:40:00,
2013-04-04 23:45:00,28.0,22.0,30.01,WSW,237,0.0,0.0,78,0.00,,---,0.00,VWS V13.01,2013-04-05 03:45:00,
2013-04-04 23:50:00,27.9,22.5,30.01,WSW,238,0.0,0.0,80,0.00,,---,0.00,VWS V13.01,2013-04-05 03:50:00,
2013-04-04 23:55:00,27.4,21.5,30.01,WSW,237,0.0,1.0,78,0.00,,---,0.00,VWS V13.01,2013-04-05 03:55:00,